Flight Track Log - Related Links

Times and Time Zones

All times are in EDT time to prevent confusion due to time zone crossing. See the UAL3776 flight status page for this flight to view local times or setup timezone preferences in your user account.

Time Position Orientation Groundspeed Altitude Reporting Facility
EDT Latitude Longitude Course Direction KTS MPH feet Rate Location/Type
Fri 07:51:25 PM 42.3500 -71.0167 144° Southeast 154 177 800  Level KA90
Fri 07:52:02 PM 42.3333 -71.0000 144° Southeast 184 212 1,800 1,947 Climbing KA90
Fri 07:53:19 PM 42.3167 -70.8833 101° East 269 310 4,500 2,304 Climbing KA90
Fri 07:54:07 PM 42.3333 -70.8000 75° East 273 314 6,600 2,611 Climbing KA90
Fri 07:55:07 PM 42.3833 -70.7333 45° Northeast 278 320 9,200 2,318 Climbing KA90
Fri 07:56:19 PM 42.4644 -70.7206 North 325 374 11,700 2,233 Climbing Boston Center
Fri 07:57:16 PM 42.5342 -70.7719 331° Northwest 281 323 14,000 2,154 Climbing Boston Center
Fri 07:58:16 PM 42.5792 -70.8611 304° West 268 308 15,900 1,983 Climbing Boston Center
Fri 07:59:17 PM 42.6306 -70.9669 303° West 299 344 18,000 1,967 Climbing Boston Center
Fri 08:00:18 PM 42.6775 -71.0564 306° West 312 359 19,900 1,785 Climbing Boston Center
Fri 08:01:18 PM 42.7244 -71.1542 303° West 318 366 21,600 1,627 Climbing Boston Center
Fri 08:02:16 PM 42.7403 -71.2725 280° West 318 366 23,100 1,412 Climbing Boston Center
Fri 08:03:17 PM 42.7542 -71.3967 279° West 323 372 24,400 1,240 Climbing Boston Center
Fri 08:04:17 PM 42.7678 -71.5239 278° West 337 388 25,600 1,311 Climbing Boston Center
Fri 08:05:16 PM 42.7792 -71.6650 276° West 342 394 27,000 1,311 Climbing Boston Center
Fri 08:06:16 PM 42.7925 -71.8006 278° West 348 400 28,200 1,091 Climbing Boston Center
Fri 08:07:17 PM 42.8078 -71.9336 279° West 353 406 29,200 1,140 Climbing Boston Center
Fri 08:08:17 PM 42.8228 -72.0722 278° West 363 418 30,500 1,050 Climbing Boston Center
Fri 08:09:17 PM 42.8358 -72.2108 277° West 369 425 31,300 942 Climbing Boston Center
Fri 08:10:18 PM 42.8547 -72.3381 281° West 369 425 32,400 984 Climbing Boston Center
Fri 08:11:19 PM 42.8653 -72.4769 276° West 369 425 33,300 800 Climbing Boston Center
Fri 08:12:18 PM 42.8797 -72.6158 278° West 369 425 34,000 353 Climbing Boston Center
Fri 08:13:18 PM 42.8856 -72.7575 273° West 369 425 34,000  Level Boston Center
Fri 08:14:16 PM 42.9017 -72.9106 278° West 392 451 34,000  Level Boston Center
Fri 08:15:17 PM 42.9217 -73.0950 278° West 422 486 34,000  Level Boston Center
Fri 08:16:18 PM 42.9372 -73.2597 277° West 435 501 34,000  Level Boston Center
Fri 08:17:18 PM 42.9464 -73.4186 275° West 445 512 34,000  Level Boston Center
Fri 08:18:17 PM 42.9594 -73.5750 277° West 433 498 34,000  Level Boston Center
Fri 08:19:16 PM 42.9725 -73.7228 277° West 409 471 34,000  Level Boston Center
Fri 08:20:17 PM 42.9853 -73.8733 277° West 404 465 34,000  Level Boston Center
Fri 08:21:18 PM 42.9981 -74.0242 277° West 404 465 34,000  Level Boston Center
Fri 08:22:19 PM 43.0103 -74.1750 276° West 404 465 34,000  Level Boston Center
Fri 08:23:17 PM 43.0203 -74.3314 275° West 409 471 34,000  Level Boston Center
Fri 08:24:17 PM 43.0344 -74.4853 277° West 409 471 34,000  Level Boston Center
Fri 08:25:18 PM 43.0481 -74.6392 277° West 409 471 34,000  Level Boston Center
Fri 08:26:16 PM 43.0597 -74.7931 276° West 409 471 34,000  Level Boston Center
Fri 08:27:18 PM 43.0711 -74.9469 276° West 409 471 34,000  Level Boston Center
Fri 08:28:18 PM 43.0819 -75.1039 275° West 409 471 34,000  Level Boston Center
Fri 08:29:16 PM 43.0931 -75.2578 276° West 409 471 34,000  Level Boston Center
Fri 08:30:16 PM 43.1053 -75.4233 276° West 420 483 34,000  Level Boston Center
Fri 08:31:17 PM 43.1164 -75.5578 277° West 435 501 34,000  Level Boston Center
Fri 08:32:17 PM 43.1300 -75.7406 276° West 440 506 34,000  Level Boston Center
Fri 08:33:18 PM 43.1417 -75.9119 275° West 452 520 34,000  Level Boston Center
Fri 08:35:17 PM 43.1500 -76.2333 272° West 430 495 34,000  Level Toronto Center
Fri 08:36:18 PM 43.1403 -76.4317 266° West 440 506 34,000  Level Cleveland Center
Fri 08:37:18 PM 43.1275 -76.6003 264° West 446 513 34,000  Level Cleveland Center
Fri 08:38:18 PM 43.1139 -76.7519 263° West 451 519 34,000  Level Cleveland Center
Fri 08:39:18 PM 43.0964 -76.9239 262° West 451 519 34,000  Level Cleveland Center
Fri 08:40:18 PM 43.0828 -77.0922 264° West 451 519 34,000 1,350 Level Cleveland Center
Fri 08:41:18 PM 43.0689 -77.2522 263° West 440 506 36,700 1,950 Climbing Cleveland Center
Fri 08:42:18 PM 43.0500 -77.3953 260° West 412 474 37,900 650 Climbing Cleveland Center
Fri 08:43:18 PM 43.0097 -77.5308 248° West 393 452 38,000 50 Climbing Cleveland Center
Fri 08:44:18 PM 42.9697 -77.6719 249° West 388 447 38,000  Level Cleveland Center
Fri 08:45:18 PM 42.9294 -77.8128 249° West 398 458 38,000  Level Cleveland Center
Fri 08:46:18 PM 42.8869 -77.9592 248° West 403 464 38,000  Level Cleveland Center
Fri 08:47:18 PM 42.8442 -78.1056 248° West 408 470 38,000  Level Cleveland Center
Fri 08:48:18 PM 42.7994 -78.2544 248° West 419 482 38,000  Level Cleveland Center
Fri 08:49:18 PM 42.7544 -78.4031 248° West 419 482 38,000  Level Cleveland Center
Fri 08:50:18 PM 42.7114 -78.5544 249° West 424 488 38,000  Level Cleveland Center
Fri 08:51:18 PM 42.6658 -78.7028 247° West 429 494 38,000  Level Cleveland Center
Fri 08:52:18 PM 42.6222 -78.8478 248° West 429 494 38,000  Level Cleveland Center
Fri 08:53:18 PM 42.5681 -78.9819 241° Southwest 417 480 38,000  Level Cleveland Center
Fri 08:54:18 PM 42.4925 -79.1019 230° Southwest 417 480 38,000  Level Cleveland Center
Fri 08:55:18 PM 42.4525 -79.2578 251° West 395 455 38,000  Level Cleveland Center
Fri 08:56:18 PM 42.4792 -79.3867 286° West 379 436 38,000  Level Cleveland Center
Fri 08:57:18 PM 42.5097 -79.5269 287° West 384 442 38,000  Level Cleveland Center
Fri 08:58:18 PM 42.5339 -79.6758 282° West 396 456 38,000  Level Cleveland Center
Fri 08:59:18 PM 42.5597 -79.8250 283° West 403 464 38,000  Level Cleveland Center
Fri 09:00:18 PM 42.5753 -79.9883 277° West 403 464 38,000  Level Cleveland Center
Fri 09:01:18 PM 42.5947 -80.1375 280° West 403 464 38,000  Level Cleveland Center
Fri 09:02:18 PM 42.6119 -80.2700 280° West 409 471 38,000  Level Cleveland Center
Fri 09:03:18 PM 42.6311 -80.4222 280° West 409 471 38,000  Level Cleveland Center
Fri 09:04:18 PM 42.6458 -80.5633 278° West 404 465 38,000  Level Cleveland Center
Fri 09:05:18 PM 42.6603 -80.7103 278° West 398 458 38,000  Level Cleveland Center
Fri 09:06:18 PM 42.6619 -80.8569 271° West 393 452 38,000  Level Cleveland Center
Fri 09:07:18 PM 42.6636 -81.0011 271° West 387 445 38,000  Level Cleveland Center
Fri 09:08:18 PM 42.6653 -81.1450 271° West 381 438 38,000  Level Cleveland Center
Fri 09:09:18 PM 42.6644 -81.2892 270° West 388 447 38,000  Level Cleveland Center
Fri 09:10:18 PM 42.6653 -81.4472 270° West 383 441 38,000  Level Cleveland Center
Fri 09:11:18 PM 42.6642 -81.5997 269° West 396 456 38,000  Level Cleveland Center
Fri 09:12:18 PM 42.6586 -81.7492 267° West 396 456 38,000  Level Cleveland Center
Fri 09:13:18 PM 42.6008 -81.8836 240° Southwest 402 463 38,000  Level Cleveland Center
Fri 09:14:18 PM 42.5408 -82.0203 239° Southwest 408 470 38,000  Level Cleveland Center
Fri 09:15:18 PM 42.4847 -82.1569 241° Southwest 421 484 38,000  Level Cleveland Center
Fri 09:16:18 PM 42.4267 -82.2933 240° Southwest 421 484 38,000  Level Cleveland Center
Fri 09:17:18 PM 42.3683 -82.4294 240° Southwest 421 484 38,000  Level Cleveland Center
Fri 09:18:18 PM 42.3119 -82.5600 240° Southwest 416 479 38,000  Level Cleveland Center
Fri 09:19:18 PM 42.2656 -82.6958 245° Southwest 410 472 38,000  Level Cleveland Center
Fri 09:20:18 PM 42.2692 -82.8419 272° West 385 443 38,000  Level Cleveland Center
Fri 09:21:18 PM 42.2831 -82.9856 277° West 385 443 38,000  Level Cleveland Center
Fri 09:22:18 PM 42.2967 -83.1264 277° West 385 443 38,000  Level Cleveland Center
Fri 09:23:18 PM 42.3061 -83.2617 275° West 401 461 38,000  Level Cleveland Center
Fri 09:24:19 PM 42.3194 -83.4028 277° West 401 461 38,000 -200 Level Cleveland Center
Fri 09:25:18 PM 42.3325 -83.5436 277° West 388 447 37,600 -706 Descending Cleveland Center
Fri 09:26:18 PM 42.3475 -83.6878 278° West 388 447 36,600 -1,000 Descending Cleveland Center
Fri 09:27:18 PM 42.3564 -83.8175 275° West 382 440 35,600 -1,000 Descending Cleveland Center
Fri 09:28:18 PM 42.3672 -83.9500 276° West 368 423 34,600 -1,000 Descending Cleveland Center
Fri 09:29:18 PM 42.3775 -84.0942 276° West 373 429 33,600 -1,000 Descending Cleveland Center
Fri 09:30:18 PM 42.3892 -84.2494 276° West 397 457 32,600 -857 Descending Cleveland Center
Fri 09:31:10 PM 42.4022 -84.3775 278° West 414 476 32,000 -319 Descending Chicago Center
Fri 09:32:11 PM 42.4139 -84.5297 276° West 409 471 32,000  Level Chicago Center
Fri 09:33:13 PM 42.4261 -84.6906 276° West 425 489 32,000  Level Chicago Center
Fri 09:34:15 PM 42.4383 -84.8522 276° West 431 496 32,000  Level Chicago Center
Fri 09:35:16 PM 42.4525 -85.0364 276° West 413 475 32,000  Level Chicago Center
Fri 09:36:19 PM 42.4639 -85.1875 276° West 405 466 32,000  Level Chicago Center
Fri 09:37:19 PM 42.4719 -85.3253 275° West 377 434 32,000 -492 Level Chicago Center
Fri 09:38:21 PM 42.4803 -85.4572 275° West 359 413 31,000 -1,463 Descending Chicago Center
Fri 09:39:22 PM 42.5056 -85.5778 286° West 344 396 29,000 -1,951 Descending Chicago Center
Fri 09:40:24 PM 42.5442 -85.6936 294° West 339 390 27,000 -1,935 Descending Chicago Center
Fri 09:41:26 PM 42.5778 -85.8164 290° West 344 396 25,000 -2,000 Descending Chicago Center
Fri 09:42:27 PM 42.5814 -85.9553 272° West 366 421 22,900 -1,902 Descending Chicago Center
Fri 09:43:29 PM 42.5778 -86.0936 268° West 367 422 21,100 -976 Descending Chicago Center
Fri 09:44:30 PM 42.5747 -86.2475 269° West 343 395 20,900 -976 Descending Chicago Center
Fri 09:45:32 PM 42.5703 -86.3878 268° West 366 421 19,100 -1,805 Descending Chicago Center
Fri 09:46:33 PM 42.5661 -86.5306 268° West 376 433 17,200 -1,805 Descending Chicago Center
Fri 09:47:35 PM 42.5608 -86.6664 267° West 364 419 15,400 -1,756 Descending Chicago Center
Fri 09:48:36 PM 42.5436 -86.7944 260° West 356 410 13,600 -1,756 Descending Chicago Center
Fri 09:49:38 PM 42.5117 -86.9092 249° West 334 384 11,800 -1,561 Descending Chicago Center
Fri 09:50:39 PM 42.4817 -87.0194 250° West 320 368 10,400 -1,366 Descending Chicago Center
Fri 09:51:41 PM 42.4536 -87.1111 247° West 273 314 9,000 -683 Descending Chicago Center
Fri 09:52:42 PM 42.4281 -87.2069 250° West 272 313 9,000  Level Chicago Center
Fri 09:53:44 PM 42.3569 -87.2842 219° Southwest 276 318 9,000 -634 Level Chicago Center
Fri 09:54:45 PM 42.2931 -87.3461 216° Southwest 277 319 7,700 -1,512 Descending Chicago Center
Fri 09:55:47 PM 42.2289 -87.4056 214° Southwest 280 322 5,900 -1,317 Descending Chicago Center
Fri 09:56:48 PM 42.1706 -87.4642 217° Southwest 266 306 5,000 -683 Descending Chicago Center
Fri 09:57:50 PM 42.1111 -87.5242 217° Southwest 269 310 4,500 -488 Descending Chicago Center
Fri 09:58:51 PM 42.0678 -87.5942 230° Southwest 255 293 4,000 -683 Descending Chicago Center
Fri 09:59:53 PM 42.0292 -87.6819 239° Southwest 267 307 3,100 -878 Descending Chicago Center
Fri 10:00:54 PM 41.9919 -87.7669 240° Southwest 243 280 2,200 -683 Descending Chicago Center
Fri 10:01:56 PM 41.9822 -87.8228 257° West 188 216 1,700 -634 Descending Chicago Center
Fri 10:02:57 PM 41.9839 -87.8778 272° West 164 189 900 -787 Descending Chicago Center
Fri 10:04:00 PM 41.9667 -87.9000 206° Southwest  Level FlightAware Approximate

Login

Don't have an account? Register now (free) for customized features, flight alerts, and more!